Time;durP1;ratioP1;P1;durP2;ratioP2;P2;SDS_P1;SDS_P2;PMS_P1;PMS_P2;Temp;Humidity;BMP_temperature;BMP_pressure;BME280_temperature;BME280_humidity;BME280_pressure;Samples;Min_cycle;Max_cycle;Signal;HPM_P1;HPM_P2
2023/05/30 00:01:41;;;;;;;12.25;3.80;;;13.00;20.80;;;;;;5014690;28;20420;-74
2023/05/30 00:04:07;;;;;;;12.45;3.53;;;13.00;21.40;;;;;;5015238;28;20889;-74
2023/05/30 00:06:33;;;;;;;12.18;3.15;;;12.90;22.40;;;;;;5015408;28;20893;-73
2023/05/30 00:09:00;;;;;;;15.15;3.90;;;12.70;23.30;;;;;;5015134;28;20395;-75
2023/05/30 00:11:28;;;;;;;11.98;4.20;;;12.40;24.60;;;;;;5014446;28;20391;-73
2023/05/30 00:13:54;;;;;;;15.48;4.28;;;12.60;23.60;;;;;;5014698;28;20399;-73
2023/05/30 00:16:20;;;;;;;15.65;3.80;;;12.70;23.90;;;;;;5013487;28;20491;-72
2023/05/30 00:18:46;;;;;;;15.10;3.88;;;12.70;23.50;;;;;;5013857;28;20739;-73
2023/05/30 00:21:12;;;;;;;13.55;3.78;;;12.70;23.80;;;;;;5013711;28;20385;-74
2023/05/30 00:23:39;;;;;;;18.98;3.80;;;12.70;24.10;;;;;;5029191;28;20389;-72
2023/05/30 00:26:08;;;;;;;16.85;3.70;;;12.60;23.90;;;;;;5013927;28;20901;-73
2023/05/30 00:28:34;;;;;;;15.45;3.33;;;12.70;24.40;;;;;;5012825;28;20480;-74
2023/05/30 00:31:00;;;;;;;15.67;3.43;;;12.60;24.40;;;;;;5014689;28;20806;-74
2023/05/30 00:33:25;;;;;;;8.57;2.80;;;12.60;24.50;;;;;;5015232;28;20385;-75
2023/05/30 00:35:51;;;;;;;17.03;4.20;;;12.60;24.70;;;;;;5013796;28;20388;-74
2023/05/30 00:38:17;;;;;;;13.87;3.73;;;12.50;25.20;;;;;;5013507;28;20403;-74
2023/05/30 00:40:43;;;;;;;13.30;3.72;;;12.50;25.40;;;;;;5013548;28;20405;-74
2023/05/30 00:43:08;;;;;;;14.82;3.40;;;12.50;25.70;;;;;;5013307;28;20803;-73
2023/05/30 00:45:34;;;;;;;19.57;3.60;;;12.40;26.00;;;;;;5028311;28;20443;-73
2023/05/30 00:48:01;;;;;;;15.23;3.83;;;12.30;26.40;;;;;;5013524;28;20834;-72
2023/05/30 00:50:30;;;;;;;17.08;4.30;;;12.30;27.00;;;;;;5013378;28;20399;-73
2023/05/30 00:52:57;;;;;;;25.02;3.85;;;12.20;27.20;;;;;;5013027;28;20388;-74
2023/05/30 00:55:23;;;;;;;11.82;3.67;;;12.20;27.50;;;;;;5013585;28;20439;-73
2023/05/30 00:57:49;;;;;;;13.00;3.67;;;12.20;27.90;;;;;;5013481;28;20481;-74
2023/05/30 01:00:15;;;;;;;16.38;4.25;;;12.10;28.30;;;;;;5013369;28;20436;-74
2023/05/30 01:02:43;;;;;;;19.23;4.32;;;12.10;28.60;;;;;;5012976;28;20470;-74
2023/05/30 01:05:09;;;;;;;18.42;3.50;;;12.10;28.70;;;;;;5012955;28;20405;-72
2023/05/30 01:07:34;;;;;;;21.87;4.47;;;12.10;29.20;;;;;;5012957;28;20739;-72
2023/05/30 01:10:00;;;;;;;16.80;3.67;;;12.10;29.60;;;;;;5013131;28;20396;-73
2023/05/30 01:12:42;;;;;;;17.97;4.20;;;12.00;29.60;;;;;;5012889;28;20396;-73
2023/05/30 01:15:13;;;;;;;16.98;4.80;;;11.90;30.20;;;;;;5013070;28;20385;-75
2023/05/30 01:17:55;;;;;;;17.15;4.10;;;11.80;31.50;;;;;;5012815;28;20781;-75
2023/05/30 01:20:24;;;;;;;19.35;4.43;;;11.80;31.40;;;;;;5012630;28;20385;-73
2023/05/30 01:23:13;;;;;;;13.52;3.50;;;11.80;31.70;;;;;;5012533;28;20392;-75
2023/05/30 01:26:02;;;;;;;20.33;4.32;;;11.80;31.50;;;;;;5011838;28;20985;-73
2023/05/30 01:28:32;;;;;;;15.05;4.00;;;11.80;31.90;;;;;;5013173;28;20436;-74
2023/05/30 01:30:59;;;;;;;16.92;3.95;;;11.80;32.00;;;;;;5012966;28;20472;-73
2023/05/30 01:33:26;;;;;;;18.55;4.30;;;11.70;32.70;;;;;;5014978;28;20392;-72
2023/05/30 01:35:52;;;;;;;14.77;4.40;;;11.70;32.80;;;;;;5012177;28;20419;-74
2023/05/30 01:38:18;;;;;;;18.02;4.03;;;11.70;33.10;;;;;;5014924;28;20479;-74
2023/05/30 01:40:49;;;;;;;23.92;4.45;;;11.60;33.60;;;;;;5013920;28;20400;-73
2023/05/30 01:43:33;;;;;;;18.90;4.03;;;11.60;33.80;;;;;;5012837;28;20793;-73
2023/05/30 01:46:08;;;;;;;15.05;4.18;;;11.50;34.50;;;;;;5012978;28;20401;-74
2023/05/30 01:48:52;;;;;;;25.43;4.83;;;11.50;35.20;;;;;;5014375;28;20443;-73
2023/05/30 01:51:36;;;;;;;18.85;4.00;;;11.40;35.50;;;;;;5013756;28;20377;-76
2023/05/30 01:54:04;;;;;;;18.63;4.18;;;11.40;35.90;;;;;;5013791;28;20377;-73
2023/05/30 01:56:31;;;;;;;16.08;4.35;;;11.30;36.50;;;;;;5014487;28;20389;-75
2023/05/30 01:58:58;;;;;;;17.35;4.50;;;11.30;37.00;;;;;;5014447;28;20720;-75
2023/05/30 02:01:27;;;;;;;15.82;4.05;;;11.30;37.30;;;;;;5014139;28;20403;-76
2023/05/30 02:03:53;;;;;;;18.75;3.80;;;11.10;38.40;;;;;;5012985;28;20474;-74
2023/05/30 02:06:19;;;;;;;26.70;4.35;;;11.20;38.30;;;;;;5013423;28;20440;-74
2023/05/30 02:08:45;;;;;;;18.77;4.00;;;11.20;38.40;;;;;;5014136;28;20805;-76
2023/05/30 02:11:11;;;;;;;17.77;4.88;;;11.20;38.40;;;;;;5015827;28;20734;-75
2023/05/30 02:13:36;;;;;;;19.80;4.82;;;11.10;38.90;;;;;;5015589;28;20396;-73
2023/05/30 02:16:02;;;;;;;21.42;5.00;;;11.10;39.50;;;;;;5014817;28;20393;-72
2023/05/30 02:18:27;;;;;;;19.00;4.38;;;11.10;39.80;;;;;;5013964;28;20443;-74
2023/05/30 02:20:56;;;;;;;18.65;3.85;;;11.10;39.80;;;;;;5029715;28;20396;-74
2023/05/30 02:23:22;;;;;;;21.48;4.25;;;11.10;40.10;;;;;;5014254;28;20393;-75
2023/05/30 02:25:47;;;;;;;17.77;4.20;;;11.00;40.50;;;;;;5015165;28;20403;-75
2023/05/30 02:28:13;;;;;;;16.83;4.50;;;11.00;41.20;;;;;;5014559;28;20396;-74
2023/05/30 02:30:38;;;;;;;18.10;4.00;;;11.00;41.90;;;;;;5013661;28;20380;-74
2023/05/30 02:33:04;;;;;;;17.10;3.80;;;10.90;42.80;;;;;;5014078;28;20893;-74
2023/05/30 02:35:29;;;;;;;17.37;4.40;;;10.80;43.50;;;;;;5014203;28;20389;-74
2023/05/30 02:37:55;;;;;;;22.30;4.70;;;10.80;44.20;;;;;;5014177;28;20750;-74
2023/05/30 02:40:21;;;;;;;15.07;3.80;;;10.70;45.10;;;;;;5015581;28;20396;-74
2023/05/30 02:42:46;;;;;;;22.63;4.60;;;10.80;45.90;;;;;;5012618;28;20420;-74
2023/05/30 02:45:12;;;;;;;17.30;4.10;;;10.70;46.60;;;;;;5028501;28;20412;-74
2023/05/30 02:47:37;;;;;;;19.63;4.50;;;10.60;47.40;;;;;;5011315;28;20478;-73
2023/05/30 02:50:04;;;;;;;20.55;4.50;;;10.60;48.00;;;;;;5011389;28;20937;-73
2023/05/30 02:52:30;;;;;;;21.15;4.40;;;10.60;48.80;;;;;;5011644;28;20396;-73
2023/05/30 02:54:55;;;;;;;20.00;4.70;;;10.60;49.40;;;;;;5026867;28;20401;-74
2023/05/30 02:57:21;;;;;;;19.80;4.67;;;10.50;50.20;;;;;;5012054;28;20387;-73
2023/05/30 02:59:47;;;;;;;21.17;4.30;;;10.50;51.10;;;;;;5026937;28;20483;-73
2023/05/30 03:02:12;;;;;;;21.67;5.10;;;10.40;51.60;;;;;;5011849;28;20391;-74
2023/05/30 03:04:38;;;;;;;20.60;4.80;;;10.40;52.30;;;;;;5012899;28;20790;-73
2023/05/30 03:07:08;;;;;;;19.47;4.90;;;10.40;52.60;;;;;;5013487;28;20951;-73
2023/05/30 03:09:34;;;;;;;19.23;4.53;;;10.40;53.30;;;;;;5012697;28;20381;-74
2023/05/30 03:12:00;;;;;;;18.73;5.10;;;10.30;53.70;;;;;;5011095;28;20435;-73
2023/05/30 03:14:26;;;;;;;18.10;4.50;;;10.30;54.00;;;;;;5012275;28;20727;-73
2023/05/30 03:16:52;;;;;;;24.50;4.65;;;10.30;54.30;;;;;;5010991;28;20389;-72
2023/05/30 03:19:17;;;;;;;20.40;4.40;;;10.30;54.80;;;;;;5012586;28;20388;-74
2023/05/30 03:21:43;;;;;;;23.00;4.68;;;10.20;55.10;;;;;;5012078;28;20415;-74
2023/05/30 03:24:08;;;;;;;17.67;4.82;;;10.20;55.50;;;;;;5013005;28;20477;-74
2023/05/30 03:26:34;;;;;;;25.58;5.10;;;10.20;56.10;;;;;;5011727;28;20405;-74
2023/05/30 03:29:01;;;;;;;27.23;5.25;;;10.20;56.20;;;;;;5035497;23;20443;-73
2023/05/30 03:31:29;;;;;;;21.92;4.72;;;10.20;56.40;;;;;;5030329;28;20379;-74
2023/05/30 03:33:54;;;;;;;17.08;4.78;;;10.10;57.00;;;;;;5030377;28;20822;-74
2023/05/30 03:36:20;;;;;;;19.97;5.00;;;10.10;57.50;;;;;;5030246;28;20537;-74
2023/05/30 03:38:46;;;;;;;19.53;5.17;;;10.10;57.90;;;;;;5030142;28;20419;-74
2023/05/30 03:41:12;;;;;;;21.95;5.20;;;10.10;58.20;;;;;;5030126;28;20379;-73
2023/05/30 03:43:38;;;;;;;23.80;5.35;;;10.10;58.70;;;;;;5030061;28;20501;-73
2023/05/30 03:46:03;;;;;;;18.67;5.17;;;10.10;58.90;;;;;;5030150;28;20494;-74
2023/05/30 03:48:29;;;;;;;20.50;4.75;;;10.10;59.10;;;;;;5030061;28;20433;-74
2023/05/30 03:50:55;;;;;;;17.77;4.60;;;10.10;59.10;;;;;;5033037;28;20510;-73
2023/05/30 03:53:20;;;;;;;24.02;5.07;;;10.10;59.50;;;;;;5034405;28;20385;-74
2023/05/30 03:55:47;;;;;;;29.63;6.25;;;10.20;59.80;;;;;;5035019;28;20398;-74
2023/05/30 03:58:12;;;;;;;24.95;6.18;;;10.20;59.90;;;;;;5038326;28;20812;-74
2023/05/30 04:00:38;;;;;;;21.80;5.85;;;10.20;60.10;;;;;;5036158;28;20383;-74
2023/05/30 04:03:03;;;;;;;22.33;6.40;;;10.30;59.90;;;;;;5020066;28;20748;-74
2023/05/30 04:05:29;;;;;;;22.88;6.45;;;10.20;60.20;;;;;;5036367;28;20430;-74
2023/05/30 04:07:54;;;;;;;21.90;6.33;;;10.30;60.80;;;;;;5035071;28;20379;-74
2023/05/30 04:10:20;;;;;;;26.33;7.10;;;10.30;60.10;;;;;;5033983;28;20582;-74
2023/05/30 04:12:46;;;;;;;26.73;8.10;;;10.30;60.40;;;;;;5033206;28;20394;-73
2023/05/30 04:15:11;;;;;;;25.63;9.03;;;10.20;60.40;;;;;;5015474;28;20401;-74
2023/05/30 04:17:37;;;;;;;29.83;9.30;;;10.20;60.50;;;;;;5015724;28;20391;-73
2023/05/30 04:20:08;;;;;;;32.22;9.70;;;10.30;60.80;;;;;;5034744;28;20490;-75
2023/05/30 04:22:34;;;;;;;30.35;9.85;;;10.30;60.30;;;;;;5038814;28;20820;-73
2023/05/30 04:25:00;;;;;;;29.63;10.80;;;10.40;59.70;;;;;;5036125;28;20378;-74
2023/05/30 04:27:26;;;;;;;37.25;10.68;;;10.40;59.10;;;;;;5036148;28;20856;-73
2023/05/30 04:29:53;;;;;;;29.90;10.95;;;10.40;59.70;;;;;;5036189;28;20391;-73
2023/05/30 04:32:19;;;;;;;35.53;10.98;;;10.50;58.20;;;;;;5036410;28;20887;-73
2023/05/30 04:34:45;;;;;;;26.80;10.48;;;10.50;58.10;;;;;;5038136;28;20391;-73
2023/05/30 04:37:17;;;;;;;35.03;12.13;;;10.60;57.90;;;;;;5038271;28;20387;-74
2023/05/30 04:39:44;;;;;;;25.90;10.88;;;10.70;57.00;;;;;;5038353;28;20383;-74
2023/05/30 04:42:10;;;;;;;30.98;11.60;;;10.80;55.40;;;;;;5036985;28;20803;-73
2023/05/30 04:44:37;;;;;;;37.30;11.70;;;10.80;55.70;;;;;;5036853;28;20387;-74
2023/05/30 04:47:13;;;;;;;36.77;11.67;;;10.90;54.60;;;;;;5035239;28;20716;-74
2023/05/30 04:49:39;;;;;;;30.75;11.90;;;10.90;54.30;;;;;;5034313;28;20383;-74
2023/05/30 04:52:06;;;;;;;28.67;11.50;;;10.90;54.80;;;;;;5032887;28;20477;-74
2023/05/30 04:54:32;;;;;;;34.17;12.30;;;11.00;53.70;;;;;;5032745;28;20803;-73
2023/05/30 04:56:57;;;;;;;32.83;12.27;;;11.00;53.30;;;;;;5015150;28;20387;-74
2023/05/30 04:59:23;;;;;;;38.20;13.30;;;11.00;53.20;;;;;;5032814;28;20398;-73
2023/05/30 05:01:49;;;;;;;29.15;13.30;;;11.00;53.40;;;;;;5032491;28;20390;-72
2023/05/30 05:04:14;;;;;;;34.15;11.88;;;11.10;53.60;;;;;;5053029;28;20394;-72
2023/05/30 05:06:40;;;;;;;29.77;12.50;;;11.10;52.00;;;;;;5044158;28;20536;-73
2023/05/30 05:09:05;;;;;;;32.25;12.40;;;11.10;52.90;;;;;;5015428;28;20410;-73
2023/05/30 05:11:31;;;;;;;34.67;12.60;;;11.20;52.60;;;;;;5032183;28;20383;-73
2023/05/30 05:13:56;;;;;;;33.17;12.32;;;11.20;51.30;;;;;;5032153;28;20462;-73
2023/05/30 05:16:22;;;;;;;32.30;12.10;;;11.30;51.80;;;;;;5032345;28;20387;-73
2023/05/30 05:18:47;;;;;;;29.07;12.13;;;11.20;51.60;;;;;;5034103;28;20387;-73
2023/05/30 05:21:14;;;;;;;33.37;11.43;;;11.30;51.20;;;;;;5032776;28;20471;-74
2023/05/30 05:23:39;;;;;;;30.60;11.73;;;11.30;50.10;;;;;;5032114;28;20390;-73
2023/05/30 05:26:05;;;;;;;34.47;12.65;;;11.20;51.00;;;;;;5031792;28;20800;-74
2023/05/30 05:28:31;;;;;;;26.00;12.10;;;11.30;50.80;;;;;;5031884;28;20490;-74
2023/05/30 05:30:58;;;;;;;30.42;12.60;;;11.40;50.30;;;;;;5031646;28;20391;-73
2023/05/30 05:33:23;;;;;;;38.28;13.05;;;11.40;49.50;;;;;;5032151;28;20405;-74
2023/05/30 05:35:49;;;;;;;37.57;14.80;;;11.40;48.30;;;;;;5031839;28;20483;-74
2023/05/30 05:38:15;;;;;;;40.45;15.88;;;11.30;49.40;;;;;;5031719;28;20916;-74
2023/05/30 05:40:41;;;;;;;35.50;16.45;;;11.40;48.80;;;;;;5032541;28;20482;-73
2023/05/30 05:43:07;;;;;;;41.33;17.60;;;11.60;49.20;;;;;;5031741;28;20485;-73
2023/05/30 05:45:32;;;;;;;31.67;17.65;;;11.70;47.20;;;;;;5032171;28;20415;-74
2023/05/30 05:47:58;;;;;;;35.88;17.80;;;11.80;46.30;;;;;;5031588;28;20387;-74
2023/05/30 05:50:24;;;;;;;37.80;14.65;;;12.00;45.00;;;;;;5031561;28;20884;-74
2023/05/30 05:52:50;;;;;;;32.28;13.45;;;12.00;43.40;;;;;;5031532;28;20474;-75
2023/05/30 05:55:15;;;;;;;30.67;11.10;;;11.90;43.50;;;;;;5031432;28;20387;-75
2023/05/30 05:57:41;;;;;;;32.43;12.60;;;11.80;44.00;;;;;;5031339;28;20818;-73
2023/05/30 06:00:08;;;;;;;35.58;12.20;;;11.80;45.70;;;;;;5031424;28;20755;-74
2023/05/30 06:02:33;;;;;;;32.47;12.23;;;11.80;44.90;;;;;;5026348;28;20406;-73
2023/05/30 06:04:59;;;;;;;28.73;12.73;;;11.80;44.60;;;;;;5030331;28;20473;-73
2023/05/30 06:07:24;;;;;;;29.98;12.77;;;11.90;44.70;;;;;;5031115;28;20454;-73
2023/05/30 06:09:50;;;;;;;33.83;14.10;;;12.00;45.20;;;;;;5030751;28;20400;-74
2023/05/30 06:12:16;;;;;;;31.40;13.20;;;12.20;43.30;;;;;;5032857;28;20418;-73
2023/05/30 06:14:41;;;;;;;33.13;13.90;;;12.40;44.20;;;;;;5031600;28;20884;-74
2023/05/30 06:17:08;;;;;;;34.00;13.57;;;12.60;40.40;;;;;;5032436;28;20384;-73
2023/05/30 06:19:33;;;;;;;40.97;12.45;;;12.80;39.50;;;;;;5031708;28;20426;-76
2023/05/30 06:21:59;;;;;;;30.33;13.00;;;12.80;37.40;;;;;;5030500;28;20415;-72
2023/05/30 06:24:25;;;;;;;31.40;12.87;;;12.80;37.80;;;;;;5030654;28;20483;-73
2023/05/30 06:26:50;;;;;;;27.93;11.70;;;12.80;39.70;;;;;;5030489;28;20610;-76
2023/05/30 06:29:18;;;;;;;31.05;12.15;;;12.90;38.20;;;;;;5030159;28;20792;-76
2023/05/30 06:31:43;;;;;;;32.60;12.05;;;13.00;36.40;;;;;;5012967;28;20387;-73
2023/05/30 06:34:09;;;;;;;28.15;13.20;;;13.00;35.90;;;;;;5029544;28;20399;-74
2023/05/30 06:36:35;;;;;;;25.63;11.57;;;12.90;36.30;;;;;;5015398;28;20905;-73
2023/05/30 06:39:01;;;;;;;31.75;13.00;;;12.80;35.10;;;;;;5008770;28;20393;-73
2023/05/30 06:41:26;;;;;;;35.85;13.05;;;12.70;36.80;;;;;;5008717;28;20837;-75
2023/05/30 06:43:52;;;;;;;26.95;12.40;;;12.70;37.50;;;;;;5011424;28;20426;-74
2023/05/30 06:46:17;;;;;;;31.70;12.60;;;12.70;37.10;;;;;;5027969;28;20497;-73
2023/05/30 06:48:43;;;;;;;28.93;11.70;;;12.70;37.40;;;;;;5027877;28;20397;-74
2023/05/30 06:51:09;;;;;;;29.17;11.20;;;12.80;35.70;;;;;;5028034;28;20532;-74
2023/05/30 06:53:34;;;;;;;27.13;11.63;;;12.70;36.50;;;;;;5027022;28;21152;-74
2023/05/30 06:56:00;;;;;;;35.78;11.80;;;12.60;37.00;;;;;;5027627;28;20484;-75
2023/05/30 06:58:25;;;;;;;31.55;11.50;;;12.80;36.70;;;;;;5027965;28;20876;-76
2023/05/30 07:00:51;;;;;;;22.80;10.93;;;12.90;36.60;;;;;;5027739;28;20422;-74
2023/05/30 07:03:17;;;;;;;29.02;11.18;;;13.00;36.50;;;;;;5028678;28;20435;-75
2023/05/30 07:05:43;;;;;;;23.33;9.50;;;13.00;36.80;;;;;;5027953;28;20415;-75
2023/05/30 07:08:08;;;;;;;17.92;9.50;;;13.10;36.30;;;;;;5028135;28;20800;-73
2023/05/30 07:10:34;;;;;;;27.30;9.68;;;13.10;36.10;;;;;;5028129;28;20391;-72
2023/05/30 07:13:00;;;;;;;26.60;10.35;;;13.10;36.20;;;;;;5022561;28;20479;-74
2023/05/30 07:15:28;;;;;;;24.20;9.93;;;13.30;35.40;;;;;;5021788;28;20482;-73
2023/05/30 07:17:53;;;;;;;20.17;9.65;;;13.40;34.60;;;;;;5028071;28;20425;-73
2023/05/30 07:20:22;;;;;;;26.13;10.23;;;13.30;34.40;;;;;;5030917;28;20583;-75
2023/05/30 07:22:49;;;;;;;24.55;10.45;;;13.40;35.00;;;;;;5030343;28;20777;-75
2023/05/30 07:25:14;;;;;;;28.00;10.40;;;13.60;33.80;;;;;;5032575;28;20449;-75
2023/05/30 07:27:40;;;;;;;23.13;9.35;;;13.80;31.80;;;;;;5033613;28;20748;-73
2023/05/30 07:30:06;;;;;;;23.40;9.70;;;13.90;31.50;;;;;;5033986;28;20402;-74
2023/05/30 07:32:31;;;;;;;23.38;8.52;;;13.90;30.30;;;;;;5034175;28;20593;-73
2023/05/30 07:34:57;;;;;;;20.67;8.20;;;13.70;30.90;;;;;;5016074;28;20427;-73
2023/05/30 07:37:23;;;;;;;23.27;8.63;;;13.60;31.10;;;;;;5033647;28;20812;-74
2023/05/30 07:39:48;;;;;;;20.50;9.50;;;13.60;31.50;;;;;;5034127;28;20474;-74
2023/05/30 07:42:14;;;;;;;23.93;8.47;;;13.70;32.30;;;;;;5034718;28;20456;-75
2023/05/30 07:44:39;;;;;;;28.40;9.73;;;13.70;31.10;;;;;;5035188;28;20606;-74
2023/05/30 07:47:05;;;;;;;25.45;9.50;;;13.70;30.70;;;;;;5034243;28;20857;-75
2023/05/30 07:49:31;;;;;;;23.48;9.07;;;13.80;30.30;;;;;;5034760;28;20383;-74
2023/05/30 07:51:56;;;;;;;25.17;9.63;;;13.70;29.90;;;;;;5035084;28;20389;-75
2023/05/30 07:54:22;;;;;;;18.55;9.00;;;13.80;29.90;;;;;;5035365;28;20414;-74
2023/05/30 07:56:47;;;;;;;23.77;9.98;;;13.70;28.50;;;;;;5038929;28;20402;-73
2023/05/30 07:59:13;;;;;;;24.73;9.33;;;13.70;29.70;;;;;;5050739;28;20402;-73
2023/05/30 08:01:39;;;;;;;22.87;9.83;;;13.90;29.00;;;;;;5018698;28;20395;-74
2023/05/30 08:04:04;;;;;;;21.83;8.90;;;13.90;28.50;;;;;;5033793;28;20390;-74
2023/05/30 08:06:31;;;;;;;19.57;9.60;;;13.90;28.30;;;;;;5033559;28;20443;-75
2023/05/30 08:08:56;;;;;;;23.50;10.82;;;13.90;28.30;;;;;;5033415;28;20463;-75
2023/05/30 08:11:22;;;;;;;27.75;11.10;;;14.10;29.40;;;;;;5033056;28;20474;-76
2023/05/30 08:13:48;;;;;;;27.30;10.43;;;14.30;28.00;;;;;;5033466;28;20461;-74
2023/05/30 08:16:14;;;;;;;22.80;10.63;;;14.60;27.40;;;;;;5030468;28;20426;-74
2023/05/30 08:18:39;;;;;;;22.52;10.23;;;14.80;25.90;;;;;;5023892;28;20453;-73
2023/05/30 08:21:05;;;;;;;24.20;9.60;;;14.90;26.10;;;;;;5032804;28;20395;-73
2023/05/30 08:23:30;;;;;;;25.95;9.73;;;15.00;25.10;;;;;;5032977;28;20434;-73
2023/05/30 08:25:56;;;;;;;23.17;9.60;;;14.80;26.10;;;;;;5032988;28;20395;-74
2023/05/30 08:28:23;;;;;;;20.80;9.43;;;14.90;25.90;;;;;;5032571;28;20387;-74
2023/05/30 08:30:48;;;;;;;23.63;10.80;;;15.00;25.50;;;;;;5032919;28;20379;-73
2023/05/30 08:33:16;;;;;;;25.08;11.00;;;15.10;23.10;;;;;;5032824;28;20907;-74
2023/05/30 08:35:42;;;;;;;29.55;10.30;;;15.30;25.00;;;;;;5016519;28;20385;-73
2023/05/30 08:38:07;;;;;;;27.35;9.70;;;15.30;24.20;;;;;;5019567;28;20473;-74
2023/05/30 08:40:34;;;;;;;16.20;8.52;;;15.30;25.10;;;;;;5032951;28;20568;-74
2023/05/30 08:43:00;;;;;;;18.70;8.50;;;15.30;23.70;;;;;;5032589;28;20406;-75
2023/05/30 08:45:27;;;;;;;20.58;8.50;;;15.20;23.90;;;;;;5014926;28;20892;-72
2023/05/30 08:47:55;;;;;;;19.15;8.05;;;15.20;24.00;;;;;;5031705;28;20561;-73
2023/05/30 08:50:21;;;;;;;19.70;7.93;;;15.10;23.30;;;;;;5008275;28;20664;-73
2023/05/30 08:52:51;;;;;;;22.10;7.55;;;15.20;22.50;;;;;;5032559;28;20387;-73
2023/05/30 08:55:30;;;;;;;23.90;8.20;;;15.00;21.60;;;;;;5032366;28;20418;-73
2023/05/30 08:58:08;;;;;;;18.08;8.80;;;14.90;22.50;;;;;;5032955;28;20415;-73
2023/05/30 09:00:35;;;;;;;16.65;7.93;;;14.90;21.80;;;;;;5032652;28;20375;-73
2023/05/30 09:03:05;;;;;;;24.05;7.55;;;14.80;22.30;;;;;;5032575;28;20387;-74
2023/05/30 09:05:35;;;;;;;20.15;8.68;;;15.00;21.80;;;;;;5034204;28;20847;-73
2023/05/30 09:08:02;;;;;;;22.98;7.20;;;15.10;20.50;;;;;;5033733;28;20387;-74
2023/05/30 09:10:28;;;;;;;17.55;7.45;;;15.30;20.40;;;;;;5033838;28;20383;-74
2023/05/30 09:12:55;;;;;;;19.40;7.38;;;15.50;20.50;;;;;;5033697;28;20465;-73
2023/05/30 09:15:21;;;;;;;22.92;8.45;;;15.50;21.60;;;;;;5033488;28;20751;-74
2023/05/30 09:17:46;;;;;;;31.10;8.50;;;15.70;21.90;;;;;;5030545;28;20477;-74
2023/05/30 09:20:16;;;;;;;19.20;6.70;;;15.90;21.70;;;;;;5032606;28;20391;-73
2023/05/30 09:22:43;;;;;;;18.38;7.60;;;16.10;20.60;;;;;;5032160;28;20386;-73
2023/05/30 09:25:09;;;;;;;21.55;7.82;;;16.30;17.70;;;;;;5032934;28;20434;-73
2023/05/30 09:27:35;;;;;;;21.90;7.45;;;16.10;18.30;;;;;;5032672;28;20416;-74
2023/05/30 09:30:09;;;;;;;18.05;8.30;;;16.10;18.30;;;;;;5032434;28;20458;-74
2023/05/30 09:32:36;;;;;;;18.95;7.50;;;16.10;18.80;;;;;;5032429;28;20379;-73
2023/05/30 09:35:09;;;;;;;17.77;7.70;;;16.10;18.90;;;;;;5031650;28;20450;-74
2023/05/30 09:37:36;;;;;;;16.90;7.65;;;16.10;18.70;;;;;;5031558;28;20415;-75
2023/05/30 09:40:13;;;;;;;17.33;7.70;;;16.10;17.50;;;;;;5014073;28;20372;-74
2023/05/30 09:42:41;;;;;;;18.63;7.80;;;16.20;18.00;;;;;;5031201;28;20453;-74
2023/05/30 09:45:09;;;;;;;23.38;7.85;;;16.10;19.10;;;;;;5013620;28;20394;-73
2023/05/30 09:47:39;;;;;;;19.35;7.60;;;16.10;19.70;;;;;;5030536;28;20498;-73
2023/05/30 09:50:06;;;;;;;19.20;7.63;;;16.30;19.10;;;;;;5031197;28;20391;-74
2023/05/30 09:52:32;;;;;;;16.45;7.03;;;16.40;18.60;;;;;;5031103;28;20380;-73
2023/05/30 09:54:58;;;;;;;17.08;7.28;;;16.40;18.70;;;;;;5030936;28;20467;-73
2023/05/30 09:57:27;;;;;;;16.97;6.60;;;16.40;18.50;;;;;;5031125;28;20891;-73
2023/05/30 09:59:53;;;;;;;18.83;7.43;;;16.50;17.70;;;;;;5032032;28;20391;-74
2023/05/30 10:02:22;;;;;;;19.52;7.13;;;16.60;18.10;;;;;;5030848;28;20437;-73
2023/05/30 10:04:51;;;;;;;23.50;7.43;;;16.70;17.80;;;;;;5031063;28;20799;-73
2023/05/30 10:07:19;;;;;;;16.48;6.88;;;17.00;16.80;;;;;;5030834;28;20407;-74
2023/05/30 10:09:49;;;;;;;19.08;7.80;;;17.00;16.80;;;;;;5030613;28;20378;-74
2023/05/30 10:12:15;;;;;;;20.58;7.75;;;17.20;16.80;;;;;;5031063;28;20384;-74
2023/05/30 10:14:40;;;;;;;23.85;7.00;;;17.20;15.90;;;;;;5030895;28;20398;-73
2023/05/30 10:17:07;;;;;;;21.98;7.93;;;17.20;16.70;;;;;;5030758;28;20452;-73
2023/05/30 10:19:50;;;;;;;24.88;7.70;;;17.30;17.40;;;;;;5030603;28;20414;-73
2023/05/30 10:22:17;;;;;;;19.20;6.70;;;17.40;17.00;;;;;;5030587;28;20386;-73
2023/05/30 10:24:47;;;;;;;17.42;8.00;;;17.20;16.60;;;;;;5030502;28;20391;-74
2023/05/30 10:27:17;;;;;;;22.33;8.15;;;17.20;18.40;;;;;;5030619;28;20411;-74
2023/05/30 10:30:06;;;;;;;16.33;7.18;;;17.40;18.20;;;;;;5030433;28;20416;-74
2023/05/30 10:32:36;;;;;;;19.25;7.15;;;17.70;17.20;;;;;;5030500;28;20380;-73
2023/05/30 10:35:14;;;;;;;19.63;7.90;;;18.10;16.60;;;;;;5030508;28;20410;-73
2023/05/30 10:37:41;;;;;;;24.17;8.70;;;18.30;15.30;;;;;;5030723;28;20387;-74
2023/05/30 10:40:16;;;;;;;27.08;8.27;;;18.30;14.70;;;;;;5030745;28;20386;-74
2023/05/30 10:43:02;;;;;;;23.20;7.65;;;18.00;15.90;;;;;;5030175;28;20763;-74
2023/05/30 10:45:58;;;;;;;17.92;7.50;;;18.10;15.20;;;;;;5030224;28;20449;-74
2023/05/30 10:48:38;;;;;;;20.77;7.40;;;18.40;14.60;;;;;;5031074;28;20414;-74
2023/05/30 10:51:04;;;;;;;21.25;7.90;;;18.50;13.60;;;;;;5029733;28;20375;-73
2023/05/30 10:53:42;;;;;;;18.77;8.30;;;18.70;14.00;;;;;;5030005;28;20379;-73
2023/05/30 10:56:27;;;;;;;17.57;7.73;;;18.80;13.80;;;;;;5030187;28;20414;-74
2023/05/30 10:58:53;;;;;;;21.73;7.60;;;18.80;12.70;;;;;;5032338;28;20416;-73
2023/05/30 11:01:26;;;;;;;24.50;7.83;;;18.90;13.40;;;;;;5034206;28;20462;-73
2023/05/30 11:03:55;;;;;;;15.45;6.65;;;18.90;12.20;;;;;;5034192;28;20395;-73
2023/05/30 11:06:21;;;;;;;11.43;6.07;;;18.90;11.40;;;;;;5034148;28;20419;-73
2023/05/30 11:08:51;;;;;;;25.35;6.97;;;19.00;12.20;;;;;;5034289;28;20379;-74
2023/05/30 11:11:17;;;;;;;24.23;9.02;;;19.00;11.10;;;;;;5033925;28;20906;-74
2023/05/30 11:13:55;;;;;;;15.95;7.05;;;18.90;11.70;;;;;;5034063;28;20383;-73
2023/05/30 11:16:22;;;;;;;17.80;8.10;;;19.00;11.20;;;;;;5033852;28;20387;-73
2023/05/30 11:18:51;;;;;;;16.50;7.32;;;19.00;12.40;;;;;;5033693;28;20470;-73
2023/05/30 11:21:58;;;;;;;18.83;7.20;;;19.20;11.10;;;;;;5033601;28;20907;-74
2023/05/30 11:24:25;;;;;;;18.98;6.90;;;19.40;10.30;;;;;;5034117;28;20469;-73
2023/05/30 11:26:59;;;;;;;19.42;7.25;;;19.60;11.30;;;;;;5033794;28;20402;-73
2023/05/30 11:29:55;;;;;;;25.73;8.20;;;19.80;10.30;;;;;;5033988;28;20395;-73
2023/05/30 11:32:28;;;;;;;12.88;7.00;;;19.70;10.10;;;;;;5028938;28;20387;-74
2023/05/30 11:35:01;;;;;;;18.15;6.43;;;19.70;11.00;;;;;;5035422;28;20378;-74
2023/05/30 11:37:31;;;;;;;19.30;6.50;;;19.70;10.00;;;;;;5015687;28;20925;-74
2023/05/30 11:39:57;;;;;;;17.48;7.93;;;19.80;8.70;;;;;;5033367;28;20395;-74
2023/05/30 11:42:24;;;;;;;18.92;6.60;;;19.80;9.70;;;;;;5034115;28;20395;-73
2023/05/30 11:44:50;;;;;;;20.38;7.30;;;19.90;10.50;;;;;;5033457;28;20390;-74
2023/05/30 11:47:18;;;;;;;18.15;7.63;;;20.00;10.00;;;;;;5036826;28;20406;-75
2023/05/30 11:49:48;;;;;;;14.02;6.90;;;20.10;9.60;;;;;;5034261;28;20383;-74
2023/05/30 11:52:14;;;;;;;16.67;7.00;;;20.10;10.90;;;;;;5033512;28;20432;-74
2023/05/30 11:54:40;;;;;;;18.17;6.70;;;19.90;8.90;;;;;;4999461;28;20391;-73
2023/05/30 11:57:16;;;;;;;12.85;6.90;;;19.90;9.50;;;;;;5034279;28;20912;-73
2023/05/30 11:59:44;;;;;;;18.80;7.07;;;20.00;9.80;;;;;;5033477;28;20442;-72
2023/05/30 12:02:10;;;;;;;13.88;6.30;;;19.80;10.60;;;;;;5033358;28;20419;-73
2023/05/30 12:04:37;;;;;;;12.07;6.40;;;19.90;10.90;;;;;;5033938;28;20422;-73
2023/05/30 12:07:05;;;;;;;16.87;6.10;;;20.00;10.10;;;;;;5032825;28;20431;-73
2023/05/30 12:09:41;;;;;;;18.30;6.90;;;20.10;9.20;;;;;;5032517;28;20375;-73
2023/05/30 12:12:07;;;;;;;20.17;9.07;;;20.00;9.90;;;;;;5032774;28;20444;-73
2023/05/30 12:14:53;;;;;;;19.73;9.40;;;20.00;9.90;;;;;;5033263;28;20371;-74
2023/05/30 12:17:21;;;;;;;15.55;6.80;;;20.10;10.40;;;;;;5032962;28;20509;-74
2023/05/30 12:19:50;;;;;;;13.73;6.47;;;20.00;9.80;;;;;;5033007;28;20898;-74
2023/05/30 12:22:17;;;;;;;20.10;6.75;;;19.90;9.10;;;;;;5033411;28;20383;-74
2023/05/30 12:24:44;;;;;;;16.97;7.10;;;19.90;10.20;;;;;;5032842;28;20391;-74
2023/05/30 12:27:21;;;;;;;15.00;5.85;;;20.00;9.80;;;;;;5015025;28;20410;-74
2023/05/30 12:29:48;;;;;;;17.08;5.70;;;20.00;10.20;;;;;;5032629;28;20391;-73
2023/05/30 12:32:20;;;;;;;10.77;5.77;;;20.20;10.10;;;;;;5032770;28;20383;-74
2023/05/30 12:34:46;;;;;;;12.18;6.60;;;20.20;9.70;;;;;;5033080;28;20391;-74
2023/05/30 12:37:13;;;;;;;21.83;7.25;;;19.90;10.00;;;;;;5032820;28;20387;-74
2023/05/30 12:39:52;;;;;;;15.43;6.30;;;19.90;10.80;;;;;;5032949;28;20392;-74